createdAt,value
2024-03-03T00:00:35.502Z,2.60
2024-03-03T00:03:10.917Z,2.55
2024-03-03T00:05:44.579Z,2.60
2024-03-03T00:08:17.350Z,2.47
2024-03-03T00:10:51.419Z,2.10
2024-03-03T00:13:26.051Z,2.20
2024-03-03T00:15:59.126Z,2.78
2024-03-03T00:18:31.968Z,2.40
2024-03-03T00:21:06.311Z,2.15
2024-03-03T00:23:38.989Z,1.85
2024-03-03T00:26:11.899Z,2.10
2024-03-03T00:28:44.886Z,2.22
2024-03-03T00:31:20.001Z,2.30
2024-03-03T00:33:52.878Z,2.17
2024-03-03T00:36:25.694Z,2.10
2024-03-03T00:38:58.359Z,2.45
2024-03-03T00:41:31.196Z,2.92
2024-03-03T00:44:04.463Z,2.40
2024-03-03T00:46:37.253Z,2.50
2024-03-03T00:49:09.963Z,2.70
2024-03-03T00:51:42.676Z,2.22
2024-03-03T00:54:15.313Z,2.42
2024-03-03T00:56:47.967Z,2.78
2024-03-03T00:59:20.917Z,2.55
2024-03-03T01:01:53.615Z,2.78
2024-03-03T01:04:26.252Z,2.58
2024-03-03T01:06:58.969Z,2.80
2024-03-03T01:09:31.677Z,2.90
2024-03-03T01:12:04.825Z,2.65
2024-03-03T01:14:37.489Z,2.70
2024-03-03T01:17:13.003Z,2.90
2024-03-03T01:19:46.791Z,2.65
2024-03-03T01:22:28.880Z,2.78
2024-03-03T01:25:01.643Z,3.33
2024-03-03T01:27:34.693Z,3.33
2024-03-03T01:30:08.752Z,3.08
2024-03-03T01:32:41.410Z,2.92
2024-03-03T01:35:14.136Z,3.15
2024-03-03T01:37:46.771Z,2.53
2024-03-03T01:40:19.550Z,2.78
2024-03-03T01:42:59.324Z,2.72
2024-03-03T01:45:32.064Z,2.80
2024-03-03T01:48:05.294Z,2.83
2024-03-03T01:50:39.993Z,2.70
2024-03-03T01:53:14.136Z,3.15
2024-03-03T01:55:48.093Z,3.08
2024-03-03T01:58:24.536Z,3.08
2024-03-03T02:01:07.164Z,3.22
2024-03-03T02:03:40.715Z,2.58
2024-03-03T02:06:18.736Z,2.80
2024-03-03T02:08:51.842Z,2.92
2024-03-03T02:11:24.597Z,3.00
2024-03-03T02:13:57.513Z,2.85
2024-03-03T02:16:30.210Z,3.20
2024-03-03T02:19:03.200Z,3.10
2024-03-03T02:21:36.017Z,2.90
2024-03-03T02:24:08.681Z,3.05
2024-03-03T02:26:41.350Z,2.80
2024-03-03T02:29:15.755Z,3.03
2024-03-03T02:31:50.255Z,3.05
2024-03-03T02:37:02.470Z,2.75
2024-03-03T02:39:35.239Z,2.72
2024-03-03T02:42:08.046Z,2.88
2024-03-03T02:44:40.654Z,2.92
2024-03-03T02:47:13.513Z,2.90
2024-03-03T02:49:46.189Z,3.05
2024-03-03T02:52:19.159Z,3.10
2024-03-03T02:54:51.913Z,2.83
2024-03-03T02:57:24.587Z,3.33
2024-03-03T02:59:57.303Z,2.83
2024-03-03T03:02:31.119Z,2.67
2024-03-03T03:05:04.493Z,3.58
2024-03-03T03:07:37.197Z,2.83
2024-03-03T03:10:18.076Z,3.25
2024-03-03T03:12:50.935Z,2.83
2024-03-03T03:15:23.941Z,3.40
2024-03-03T03:17:56.647Z,3.78
2024-03-03T03:20:29.360Z,3.03
2024-03-03T03:23:01.990Z,3.55
2024-03-03T03:25:35.179Z,3.00
2024-03-03T03:28:14.118Z,3.45
2024-03-03T03:30:46.811Z,3.50
2024-03-03T03:33:19.538Z,3.50
2024-03-03T03:35:52.276Z,3.92
2024-03-03T03:38:24.921Z,3.20
2024-03-03T03:40:57.573Z,3.60
2024-03-03T03:43:30.712Z,3.53
2024-03-03T03:46:03.459Z,4.30
2024-03-03T03:48:36.151Z,3.65
2024-03-03T03:51:09.100Z,4.05
2024-03-03T03:53:41.751Z,4.05
2024-03-03T03:56:21.669Z,4.40
2024-03-03T03:58:54.504Z,3.95
2024-03-03T04:01:29.747Z,4.10
2024-03-03T04:04:02.830Z,4.38
2024-03-03T04:06:35.570Z,4.47
2024-03-03T04:09:08.311Z,4.20
2024-03-03T04:12:00.651Z,4.30
2024-03-03T04:14:33.446Z,4.40
2024-03-03T04:17:10.335Z,4.78
2024-03-03T04:19:43.002Z,4.85
2024-03-03T04:22:15.781Z,4.57
2024-03-03T04:24:48.598Z,4.15
2024-03-03T04:27:22.450Z,4.38
2024-03-03T04:29:55.085Z,4.78
2024-03-03T04:32:34.029Z,4.72
2024-03-03T04:35:07.133Z,5.28
2024-03-03T04:37:39.794Z,4.60
2024-03-03T04:40:12.524Z,4.60
2024-03-03T04:42:47.263Z,4.65
2024-03-03T04:45:20.234Z,4.55
2024-03-03T04:47:52.968Z,4.90
2024-03-03T04:50:25.608Z,5.03
2024-03-03T04:52:58.386Z,4.95
2024-03-03T04:55:31.389Z,5.03
2024-03-03T04:58:06.169Z,5.15
2024-03-03T05:00:38.837Z,4.82
2024-03-03T05:03:12.380Z,5.90
2024-03-03T05:05:45.069Z,5.60
2024-03-03T05:08:19.949Z,6.00
2024-03-03T05:10:52.841Z,6.30
2024-03-03T05:13:26.683Z,5.90
2024-03-03T05:15:59.922Z,5.78
2024-03-03T05:18:33.619Z,6.00
2024-03-03T05:21:06.266Z,6.20
2024-03-03T05:23:54.440Z,6.70
2024-03-03T05:26:27.651Z,6.80
2024-03-03T05:29:00.356Z,5.80
2024-03-03T05:31:42.176Z,6.22
2024-03-03T05:34:16.420Z,6.32
2024-03-03T05:36:49.546Z,6.32
2024-03-03T05:39:22.909Z,6.47
2024-03-03T05:41:59.405Z,6.68
2024-03-03T05:44:35.408Z,6.55
2024-03-03T05:47:10.520Z,6.38
2024-03-03T05:49:44.267Z,6.78
2024-03-03T05:52:17.047Z,7.40
2024-03-03T05:54:49.802Z,6.85
2024-03-03T05:57:22.593Z,6.75
2024-03-03T05:59:55.338Z,7.00
2024-03-03T06:02:28.057Z,7.15
2024-03-03T06:05:00.743Z,7.28
2024-03-03T06:07:33.511Z,7.30
2024-03-03T06:10:06.748Z,6.70
2024-03-03T06:12:39.499Z,7.28
2024-03-03T06:15:12.330Z,7.30
2024-03-03T06:17:45.067Z,7.63
2024-03-03T06:20:27.435Z,7.70
2024-03-03T06:23:00.050Z,7.22
2024-03-03T06:25:33.148Z,7.00
2024-03-03T06:28:16.185Z,7.72
2024-03-03T06:30:48.959Z,7.40
2024-03-03T06:33:22.097Z,7.13
2024-03-03T06:35:54.907Z,8.30
2024-03-03T06:38:27.852Z,7.93
2024-03-03T06:41:00.551Z,8.00
2024-03-03T06:43:33.282Z,8.45
2024-03-03T06:46:06.023Z,8.07
2024-03-03T06:48:39.793Z,7.63
2024-03-03T06:51:14.038Z,7.82
2024-03-03T06:53:46.747Z,7.38
2024-03-03T06:56:19.707Z,7.40
2024-03-03T06:58:52.357Z,7.93
2024-03-03T07:01:25.111Z,8.65
2024-03-03T07:04:16.498Z,7.70
2024-03-03T07:06:49.192Z,7.05
2024-03-03T07:09:25.130Z,7.70
2024-03-03T07:11:59.137Z,7.35
2024-03-03T07:14:33.647Z,7.65
2024-03-03T07:19:38.909Z,7.20
2024-03-03T07:22:11.789Z,7.57
2024-03-03T07:24:44.471Z,7.25
2024-03-03T07:27:17.152Z,6.95
2024-03-03T07:29:49.808Z,6.97
2024-03-03T07:32:23.134Z,7.97
2024-03-03T07:34:59.370Z,8.18
2024-03-03T07:37:33.022Z,7.85
2024-03-03T07:42:45.598Z,7.45
2024-03-03T07:45:18.447Z,8.30
2024-03-03T07:47:51.163Z,7.78
2024-03-03T07:50:23.891Z,7.75
2024-03-03T07:52:56.650Z,8.07
2024-03-03T07:55:30.721Z,7.57
2024-03-03T07:58:04.158Z,8.35
2024-03-03T08:00:37.929Z,8.70
2024-03-03T08:03:11.103Z,9.20
2024-03-03T08:05:43.836Z,8.18
2024-03-03T08:08:16.638Z,7.15
2024-03-03T08:10:49.587Z,7.43
2024-03-03T08:13:22.313Z,7.20
2024-03-03T08:15:55.640Z,8.02
2024-03-03T08:18:28.559Z,7.05
2024-03-03T08:21:03.234Z,6.28
2024-03-03T08:23:35.922Z,6.72
2024-03-03T08:26:12.659Z,6.00
2024-03-03T08:28:45.427Z,5.78
2024-03-03T08:31:19.777Z,5.65
2024-03-03T08:33:52.502Z,5.82
2024-03-03T08:36:25.339Z,5.63
2024-03-03T08:38:58.353Z,5.85
2024-03-03T08:41:38.777Z,5.03
2024-03-03T08:44:11.521Z,5.15
2024-03-03T08:46:44.256Z,6.05
2024-03-03T08:49:27.272Z,6.10
2024-03-03T08:52:00.281Z,6.05
2024-03-03T08:54:33.636Z,5.95
2024-03-03T08:57:10.396Z,4.70
2024-03-03T08:59:56.588Z,5.13
2024-03-03T09:02:29.492Z,4.63
2024-03-03T09:05:02.891Z,5.28
2024-03-03T09:07:37.396Z,4.78
2024-03-03T09:12:52.003Z,4.63
2024-03-03T09:15:24.779Z,4.80
2024-03-03T09:17:57.992Z,5.88
2024-03-03T09:20:30.691Z,5.95
2024-03-03T09:23:03.811Z,6.82
2024-03-03T09:25:36.579Z,6.95
2024-03-03T09:28:21.762Z,8.25
2024-03-03T09:30:55.954Z,7.97
2024-03-03T09:33:28.795Z,6.72
2024-03-03T09:36:01.762Z,7.43
2024-03-03T09:38:37.670Z,7.75
2024-03-03T09:41:10.750Z,7.22
2024-03-03T09:43:49.773Z,7.82
2024-03-03T09:46:28.380Z,7.78
2024-03-03T09:49:04.080Z,7.53
2024-03-03T09:51:42.239Z,7.57
2024-03-03T09:54:19.781Z,7.65
2024-03-03T09:56:54.498Z,7.38
2024-03-03T09:59:27.276Z,7.30
2024-03-03T10:02:00.464Z,6.53
2024-03-03T10:04:36.107Z,7.38
2024-03-03T10:07:12.831Z,6.25
2024-03-03T10:09:57.489Z,6.90
2024-03-03T10:15:09.550Z,6.70
2024-03-03T10:17:42.450Z,7.40
2024-03-03T10:20:15.383Z,7.32
2024-03-03T10:22:48.562Z,8.02
2024-03-03T10:25:23.304Z,7.55
2024-03-03T10:28:14.535Z,7.80
2024-03-03T10:30:47.574Z,7.80
2024-03-03T10:33:27.173Z,7.72
2024-03-03T10:36:12.143Z,8.05
2024-03-03T10:38:57.226Z,7.65
2024-03-03T10:41:30.115Z,8.55
2024-03-03T10:44:03.341Z,7.93
2024-03-03T10:46:39.075Z,7.45
2024-03-03T10:49:15.050Z,6.60
2024-03-03T10:51:48.874Z,6.55
2024-03-03T10:54:24.170Z,6.28
2024-03-03T10:56:57.655Z,6.20
2024-03-03T10:59:46.925Z,5.85
2024-03-03T11:02:22.779Z,5.57
2024-03-03T11:05:05.430Z,6.28
2024-03-03T11:07:39.194Z,6.57
2024-03-03T11:10:13.531Z,5.55
2024-03-03T11:12:51.917Z,4.45
2024-03-03T11:15:27.590Z,4.70
2024-03-03T11:18:18.946Z,5.50
2024-03-03T11:20:57.554Z,3.75
2024-03-03T11:23:59.432Z,3.40
2024-03-03T11:26:44.079Z,2.33
2024-03-03T11:29:21.004Z,2.83
2024-03-03T11:31:54.253Z,2.63
2024-03-03T11:34:27.565Z,2.22
2024-03-03T11:37:02.108Z,1.77
2024-03-03T11:39:34.899Z,2.10
2024-03-03T11:42:34.119Z,2.05
2024-03-03T11:45:08.491Z,1.75
2024-03-03T11:47:57.252Z,2.33
2024-03-03T11:50:31.367Z,2.00
2024-03-03T11:55:40.313Z,1.95
2024-03-03T11:58:17.610Z,2.22
2024-03-03T12:01:11.294Z,2.60
2024-03-03T12:03:45.447Z,2.40
2024-03-03T12:09:05.969Z,2.30
2024-03-03T12:11:42.973Z,2.40
2024-03-03T12:14:15.923Z,2.60
2024-03-03T12:16:59.032Z,2.15
2024-03-03T12:19:36.095Z,2.40
2024-03-03T12:22:09.368Z,2.15
2024-03-03T12:24:42.078Z,2.07
2024-03-03T12:27:14.854Z,2.10
2024-03-03T12:30:02.211Z,1.75
2024-03-03T12:32:34.941Z,2.10
2024-03-03T12:35:09.885Z,1.90
2024-03-03T12:37:42.969Z,2.47
2024-03-03T12:40:19.114Z,1.60
2024-03-03T12:42:52.907Z,1.88
2024-03-03T12:45:26.203Z,1.80
2024-03-03T12:47:58.991Z,1.93
2024-03-03T12:50:31.751Z,1.70
2024-03-03T12:53:07.616Z,1.48
2024-03-03T12:55:43.500Z,1.85
2024-03-03T12:58:16.664Z,1.83
2024-03-03T13:00:51.274Z,1.70
2024-03-03T13:03:23.987Z,1.40
2024-03-03T13:05:56.668Z,1.48
2024-03-03T13:08:30.579Z,2.33
2024-03-03T13:11:03.360Z,1.50
2024-03-03T13:13:36.170Z,1.80
2024-03-03T13:16:13.548Z,1.63
2024-03-03T13:19:02.772Z,1.60
2024-03-03T13:21:37.599Z,1.80
2024-03-03T13:24:14.482Z,1.65
2024-03-03T13:26:47.320Z,1.45
2024-03-03T13:29:20.108Z,1.30
2024-03-03T13:31:53.938Z,1.65
2024-03-03T13:34:26.693Z,1.65
2024-03-03T13:36:59.367Z,1.88
2024-03-03T13:39:32.092Z,1.40
2024-03-03T13:42:13.079Z,1.58
2024-03-03T13:44:46.603Z,1.50
2024-03-03T13:47:19.438Z,1.60
2024-03-03T13:49:52.219Z,1.80
2024-03-03T13:52:25.327Z,1.77
2024-03-03T13:54:58.001Z,1.65
2024-03-03T13:57:35.797Z,1.80
2024-03-03T14:00:15.740Z,1.75
2024-03-03T14:02:48.627Z,1.77
2024-03-03T14:05:21.412Z,1.98
2024-03-03T14:07:54.446Z,1.77
2024-03-03T14:10:27.842Z,2.05
2024-03-03T14:13:12.980Z,1.98
2024-03-03T14:15:48.484Z,1.80
2024-03-03T14:18:21.271Z,2.00
2024-03-03T14:20:54.125Z,2.08
2024-03-03T14:23:32.023Z,1.90
2024-03-03T14:26:04.968Z,1.80
2024-03-03T14:28:37.908Z,2.13
2024-03-03T14:31:10.594Z,2.15
2024-03-03T14:33:43.341Z,2.00
2024-03-03T14:36:17.202Z,2.10
2024-03-03T14:38:50.388Z,2.33
2024-03-03T14:41:23.193Z,2.10
2024-03-03T14:43:57.982Z,2.40
2024-03-03T14:46:32.430Z,2.17
2024-03-03T14:49:06.540Z,2.13
2024-03-03T14:51:39.374Z,2.35
2024-03-03T14:54:14.123Z,1.95
2024-03-03T14:56:58.686Z,2.50
2024-03-03T14:59:31.889Z,2.20
2024-03-03T15:02:08.346Z,1.98
2024-03-03T15:04:51.625Z,2.00
2024-03-03T15:07:25.269Z,2.20
2024-03-03T15:13:10.403Z,2.05
2024-03-03T15:15:43.302Z,1.90
2024-03-03T15:18:19.574Z,2.40
2024-03-03T15:20:52.318Z,1.90
2024-03-03T15:23:25.648Z,1.95
2024-03-03T15:25:59.766Z,2.50
2024-03-03T15:28:32.654Z,2.40
2024-03-03T15:31:27.155Z,2.03
2024-03-03T15:34:00.915Z,2.13
2024-03-03T15:36:43.490Z,2.08
2024-03-03T15:39:17.332Z,2.20
2024-03-03T15:41:52.187Z,1.98
2024-03-03T15:45:10.985Z,2.10
2024-03-03T15:47:46.967Z,2.30
2024-03-03T15:50:21.931Z,1.95
2024-03-03T15:52:54.638Z,2.00
2024-03-03T15:55:27.674Z,1.90
2024-03-03T15:58:04.005Z,1.92
2024-03-03T16:00:39.017Z,1.80
2024-03-03T16:03:11.770Z,1.80
2024-03-03T16:05:48.811Z,1.90
2024-03-03T16:08:21.689Z,2.15
2024-03-03T16:10:54.936Z,2.20
2024-03-03T16:13:29.446Z,2.20
2024-03-03T16:18:35.383Z,1.90
2024-03-03T16:21:11.398Z,1.88
2024-03-03T16:23:44.699Z,1.63
2024-03-03T16:26:18.764Z,2.20
2024-03-03T16:28:51.769Z,1.73
2024-03-03T16:31:24.445Z,2.28
2024-03-03T16:33:57.165Z,2.13
2024-03-03T16:36:30.468Z,2.22
2024-03-03T16:39:06.130Z,2.38
2024-03-03T16:41:52.053Z,2.00
2024-03-03T16:44:24.688Z,2.15
2024-03-03T16:46:57.491Z,1.63
2024-03-03T16:49:30.673Z,31.75
2024-03-03T16:52:03.791Z,4.53
2024-03-03T16:54:40.600Z,49.53
2024-03-03T16:57:13.304Z,2.17
2024-03-03T16:59:46.039Z,1.95
2024-03-03T17:02:23.113Z,2.45
2024-03-03T17:04:55.789Z,4.97
2024-03-03T17:07:29.240Z,6.93
2024-03-03T17:10:05.549Z,12.75
2024-03-03T17:12:39.283Z,4.65
2024-03-03T17:15:12.921Z,3.10
2024-03-03T17:17:45.818Z,6.00
2024-03-03T17:20:18.742Z,2.35
2024-03-03T17:22:51.535Z,6.93
2024-03-03T17:25:36.912Z,1.85
2024-03-03T17:28:13.467Z,6.78
2024-03-03T17:30:51.212Z,14.88
2024-03-03T17:33:26.423Z,4.82
2024-03-03T17:35:59.623Z,4.85
2024-03-03T17:38:34.500Z,8.98
2024-03-03T17:41:07.717Z,2.83
2024-03-03T17:43:40.478Z,2.45
2024-03-03T17:46:13.464Z,3.47
2024-03-03T17:48:46.332Z,4.25
2024-03-03T17:51:18.939Z,4.00
2024-03-03T17:53:52.598Z,3.47
2024-03-03T17:56:25.243Z,3.00
2024-03-03T17:58:57.984Z,4.65
2024-03-03T18:01:31.139Z,4.32
2024-03-03T18:04:05.284Z,6.18
2024-03-03T18:06:38.256Z,7.15
2024-03-03T18:09:12.731Z,5.80
2024-03-03T18:14:18.088Z,10.27
2024-03-03T18:16:50.793Z,11.07
2024-03-03T18:19:23.538Z,13.90
2024-03-03T18:21:56.251Z,12.52
2024-03-03T18:24:32.761Z,14.02
2024-03-03T18:27:05.626Z,14.00
2024-03-03T18:29:38.756Z,14.68
2024-03-03T18:32:11.557Z,16.38
2024-03-03T18:34:44.267Z,17.60
2024-03-03T18:37:19.099Z,16.77
2024-03-03T18:39:55.362Z,18.73
2024-03-03T18:42:35.181Z,17.10
2024-03-03T18:45:08.396Z,17.05
2024-03-03T18:47:41.668Z,16.52
2024-03-03T18:50:20.960Z,17.63
2024-03-03T18:52:53.971Z,17.77
2024-03-03T18:55:27.539Z,20.02
2024-03-03T18:58:00.488Z,19.53
2024-03-03T19:00:33.285Z,19.50
2024-03-03T19:03:06.036Z,19.10
2024-03-03T19:05:39.372Z,18.90
2024-03-03T19:08:12.029Z,17.52
2024-03-03T19:10:46.361Z,16.23
2024-03-03T19:13:19.822Z,17.08
2024-03-03T19:15:54.241Z,16.63
2024-03-03T19:18:26.965Z,17.80
2024-03-03T19:21:02.362Z,16.65
2024-03-03T19:23:35.165Z,17.38
2024-03-03T19:26:35.139Z,16.35
2024-03-03T19:29:07.884Z,15.93
2024-03-03T19:31:40.601Z,15.88
2024-03-03T19:34:19.251Z,19.95
2024-03-03T19:36:52.049Z,16.08
2024-03-03T19:39:33.614Z,16.73
2024-03-03T19:42:07.201Z,17.27
2024-03-03T19:44:41.110Z,16.60
2024-03-03T19:47:13.840Z,18.95
2024-03-03T19:49:46.471Z,17.38
2024-03-03T19:52:19.457Z,17.85
2024-03-03T19:54:52.848Z,18.02
2024-03-03T19:57:28.178Z,18.38
2024-03-03T20:00:09.474Z,17.60
2024-03-03T20:02:50.929Z,18.20
2024-03-03T20:05:23.545Z,18.65
2024-03-03T20:07:56.262Z,18.80
2024-03-03T20:10:29.614Z,18.00
2024-03-03T20:13:05.131Z,19.95
2024-03-03T20:15:38.222Z,21.08
2024-03-03T20:18:11.045Z,20.33
2024-03-03T20:20:43.975Z,21.13
2024-03-03T20:23:16.731Z,19.67
2024-03-03T20:25:49.508Z,20.23
2024-03-03T20:28:22.248Z,21.27
2024-03-03T20:30:55.108Z,21.10
2024-03-03T20:33:31.362Z,21.42
2024-03-03T20:36:04.637Z,22.85
2024-03-03T20:38:45.444Z,21.98
2024-03-03T20:41:18.073Z,20.70
2024-03-03T20:43:52.573Z,22.17
2024-03-03T20:46:43.887Z,23.10
2024-03-03T20:49:18.992Z,22.90
2024-03-03T20:51:52.343Z,23.40
2024-03-03T20:54:25.078Z,22.40
2024-03-03T20:56:58.742Z,23.67
2024-03-03T20:59:32.509Z,25.97
2024-03-03T21:02:08.362Z,25.33
2024-03-03T21:04:43.899Z,24.35
2024-03-03T21:07:17.280Z,25.08
2024-03-03T21:09:50.179Z,25.02
2024-03-03T21:12:23.024Z,27.92
2024-03-03T21:14:55.745Z,24.77
2024-03-03T21:17:28.424Z,26.27
2024-03-03T21:20:01.081Z,24.35
2024-03-03T21:22:33.999Z,24.98
2024-03-03T21:25:08.611Z,26.50
2024-03-03T21:30:16.269Z,24.42
2024-03-03T21:32:49.036Z,24.70
2024-03-03T21:35:22.032Z,22.85
2024-03-03T21:37:54.672Z,22.33
2024-03-03T21:40:31.617Z,18.92
2024-03-03T21:43:12.045Z,18.73
2024-03-03T21:45:45.302Z,22.23
2024-03-03T21:48:18.107Z,19.10
2024-03-03T21:50:53.639Z,17.92
2024-03-03T21:54:45.553Z,18.15
2024-03-03T21:57:37.330Z,16.98
2024-03-03T22:00:26.965Z,17.98
2024-03-03T22:07:26.848Z,14.85
